MAPA DE AEROPUERTO

INFORMACIÓN METAR y TAF

METAR FOR LERS
ADDS - METARS form results

(1516 UTC 07 May 2021)
Data provider http://aviationweather.gov/metar/data/
 
METAR text: LERS 071500Z 13006KT 070V190 9999 SCT013 SCT020 20/15 Q1017
Conditions at: LERS (REUS (CIV/MIL) , ES) observed 1500 UTC 07 May 2021
Temperature: 20.0°C (68°F)
Dewpoint: 15.0°C (59°F) [RH = 73%]
Pressure (altimeter): 30.03 inches Hg (1017.0 mb)
Winds: from the SE (130 degrees) at 7 MPH (6 knots; 3.1 m/s)
Visibility: 6 or more miles (10+ km)
Ceiling: at least 12,000 feet AGL
Clouds: scattered clouds at 1300 feet AGL
scattered clouds at 2000 feet AGL
Weather: no significant weather observed at this time

METAR text: LERS 071430Z 13007KT 060V190 9999 SCT015 20/15 Q1017
Conditions at: LERS (REUS (CIV/MIL) , ES) observed 1430 UTC 07 May 2021
Temperature: 20.0°C (68°F)
Dewpoint: 15.0°C (59°F) [RH = 73%]
Pressure (altimeter): 30.03 inches Hg (1017.0 mb)
Winds: from the SE (130 degrees) at 8 MPH (7 knots; 3.6 m/s)
Visibility: 6 or more miles (10+ km)
Ceiling: at least 12,000 feet AGL
Clouds: scattered clouds at 1500 feet AGL
Weather: no significant weather observed at this time

Forecast for: LERS (REUS (CIV/MIL) , ES)
Text: TAF LERS 071400Z 0715/0815 13010KT 9999 FEW040 TX22/0812Z TN13/0806Z
Forecast period: 1500 to 1800 UTC 07 May 2021
Forecast type: FROM: standard forecast or significant change
Winds: from the SE (130 degrees) at 12 MPH (10 knots; 5.1 m/s)
Visibility: 6 or more miles (10+ km)
Ceiling: at least 12,000 feet AGL
Clouds: few clouds at 4000 feet AGL
Weather: no significant weather forecast for this period
Text: BECMG 0718/0720 VRB03KT
Forecast period: 1800 UTC 07 May 2021 to 0700 UTC 08 May 2021
Forecast type: BECOMING: Conditions expected to become as follows by 2000 UTC 07 May 2021
Winds: variable direction winds at 3 MPH (3 knots; 1.5 m/s)
Visibility: 6 or more miles (10+ km)
Ceiling: at least 12,000 feet AGL
Clouds: few clouds at 4000 feet AGL
Weather: no significant weather forecast for this period
Text: BECMG 0807/0809 13010KT
Forecast period: 0700 to 1500 UTC 08 May 2021
Forecast type: BECOMING: Conditions expected to become as follows by 0900 UTC 08 May 2021
Winds: from the SE (130 degrees) at 12 MPH (10 knots; 5.1 m/s)
Visibility: 6 or more miles (10+ km)
Ceiling: at least 12,000 feet AGL
Clouds: few clouds at 4000 feet AGL
Weather: no significant weather forecast for this period